Overseas Skopelos — V7SU9 — position and weather

sailwx.info

Track history (hours):
 
Tides and Currents Weather Stations Pressure Air Temp Water Temp Dewpoint Dewpoint Depression Visibility Wind Speed Wind Dir Waves Ship Positions

Overseas Skopelos

Last reported at 2016-Sep-28 03:33 UTC. Time now 2016-Sep-28 13:46 UTC.
Position N 08°35' W 079°27'.

Length 183 m; draft 11.8 m.

Type: Tanker. MMSI: 538003726.

Date/timePositionNaut miles runAvg speedWind from/ knotsBaromVisibWave heightAir tempDewpointWater temp
2016-Sep-28 03:33N 08°35' W 079°27'1110.5
2016-Sep-28 02:29N 08°47' W 079°28'1010.5
2016-Sep-28 01:33N 08°55' W 079°33'5 2.2
2016-Sep-27 23:30N 08°59' W 079°35'16 4.0
2016-Sep-27 19:31N 09°08' W 079°49'9 1.7
2016-Sep-27 14:34N 09°13' W 079°56'1 0.8
2016-Sep-27 13:33N 09°14' W 079°56'3 1.0
2016-Sep-27 10:32N 09°17' W 079°55'12 1.2
2016-Sep-27 00:33N 09°28' W 079°57'0 0.0
2016-Sep-26 20:33N 09°28' W 079°57'0 0.0
2016-Sep-26 19:33N 09°28' W 079°57'0 0.0
2016-Sep-26 15:32N 09°28' W 079°57'0 0.0
2016-Sep-26 13:29N 09°28' W 079°57'0 0.0
2016-Sep-26 11:33N 09°28' W 079°57'0 0.0
2016-Sep-26 08:11N 09°28' W 079°57'0 0.0
2016-Sep-26 02:32N 09°28' W 079°57'0 0.0
2016-Sep-26 01:33N 09°28' W 079°57'0 0.0
2016-Sep-26 00:27N 09°28' W 079°57'0 0.0
2016-Sep-25 21:32N 09°28' W 079°57'0 0.0
2016-Sep-25 17:26N 09°28' W 079°57'0 0.0
2016-Sep-25 16:20N 09°28' W 079°57'0 0.0
2016-Sep-25 15:28N 09°28' W 079°57'0 0.0
2016-Sep-25 14:32N 09°28' W 079°57'0 0.0
2016-Sep-25 12:29N 09°28' W 079°57'0 0.0
2016-Sep-25 11:32N 09°28' W 079°57'0 0.0
2016-Sep-25 10:30N 09°28' W 079°57'0 0.0
2016-Sep-25 09:23N 09°28' W 079°57'0 0.0
2016-Sep-25 07:29N 09°28' W 079°57'0 0.0
2016-Sep-25 04:33N 09°28' W 079°57'0 0.0
2016-Sep-25 00:28N 09°28' W 079°57'0 0.0
2016-Sep-24 22:33N 09°28' W 079°57'0 0.5
2016-Sep-24 21:33N 09°28' W 079°56'0 0.0
2016-Sep-24 19:26N 09°28' W 079°56'0 0.0
2016-Sep-24 18:19N 09°28' W 079°56'0 0.0
2016-Sep-24 17:27N 09°28' W 079°56'0 0.0
2016-Sep-24 16:33N 09°28' W 079°56'0 0.0
2016-Sep-24 14:31N 09°28' W 079°56'0 0.0
2016-Sep-24 12:25N 09°28' W 079°56'0 0.0
2016-Sep-24 10:29N 09°28' W 079°56'0 0.0
2016-Sep-24 09:23N 09°28' W 079°56'0 0.0
2016-Sep-24 03:29N 09°28' W 079°56'0 0.0
2016-Sep-24 02:31N 09°28' W 079°56'0 0.0
2016-Sep-24 01:31N 09°28' W 079°56'0 0.0
2016-Sep-24 00:29N 09°28' W 079°56'  
Track history (hours):
 
Tides and Currents Weather Stations Pressure Air Temp Water Temp Dewpoint Dewpoint Depression Visibility Wind Speed Wind Dir Waves Ship Positions

Overseas Skopelos

Last reported at 2016-Sep-28 03:33 UTC. Time now 2016-Sep-28 13:46 UTC.
Position N 08°35' W 079°27'.

Length 183 m; draft 11.8 m.

Type: Tanker. MMSI: 538003726.

Date/timePositionNaut miles runAvg speedWind from/ knotsBaromVisibWave heightAir tempDewpointWater temp
2016-Sep-28 03:33N 08°35' W 079°27'1110.5
2016-Sep-28 02:29N 08°47' W 079°28'1010.5
2016-Sep-28 01:33N 08°55' W 079°33'5 2.2
2016-Sep-27 23:30N 08°59' W 079°35'16 4.0
2016-Sep-27 19:31N 09°08' W 079°49'9 1.7
2016-Sep-27 14:34N 09°13' W 079°56'1 0.8
2016-Sep-27 13:33N 09°14' W 079°56'3 1.0
2016-Sep-27 10:32N 09°17' W 079°55'12 1.2
2016-Sep-27 00:33N 09°28' W 079°57'0 0.0
2016-Sep-26 20:33N 09°28' W 079°57'0 0.0
2016-Sep-26 19:33N 09°28' W 079°57'0 0.0
2016-Sep-26 15:32N 09°28' W 079°57'0 0.0
2016-Sep-26 13:29N 09°28' W 079°57'0 0.0
2016-Sep-26 11:33N 09°28' W 079°57'0 0.0
2016-Sep-26 08:11N 09°28' W 079°57'0 0.0
2016-Sep-26 02:32N 09°28' W 079°57'0 0.0
2016-Sep-26 01:33N 09°28' W 079°57'0 0.0
2016-Sep-26 00:27N 09°28' W 079°57'0 0.0
2016-Sep-25 21:32N 09°28' W 079°57'0 0.0
2016-Sep-25 17:26N 09°28' W 079°57'0 0.0
2016-Sep-25 16:20N 09°28' W 079°57'0 0.0
2016-Sep-25 15:28N 09°28' W 079°57'0 0.0
2016-Sep-25 14:32N 09°28' W 079°57'0 0.0
2016-Sep-25 12:29N 09°28' W 079°57'0 0.0
2016-Sep-25 11:32N 09°28' W 079°57'0 0.0
2016-Sep-25 10:30N 09°28' W 079°57'0 0.0
2016-Sep-25 09:23N 09°28' W 079°57'0 0.0
2016-Sep-25 07:29N 09°28' W 079°57'0 0.0
2016-Sep-25 04:33N 09°28' W 079°57'0 0.0
2016-Sep-25 00:28N 09°28' W 079°57'0 0.0
2016-Sep-24 22:33N 09°28' W 079°57'0 0.5
2016-Sep-24 21:33N 09°28' W 079°56'0 0.0
2016-Sep-24 19:26N 09°28' W 079°56'0 0.0
2016-Sep-24 18:19N 09°28' W 079°56'0 0.0
2016-Sep-24 17:27N 09°28' W 079°56'0 0.0
2016-Sep-24 16:33N 09°28' W 079°56'0 0.0
2016-Sep-24 14:31N 09°28' W 079°56'0 0.0
2016-Sep-24 12:25N 09°28' W 079°56'0 0.0
2016-Sep-24 10:29N 09°28' W 079°56'0 0.0
2016-Sep-24 09:23N 09°28' W 079°56'0 0.0
2016-Sep-24 03:29N 09°28' W 079°56'0 0.0
2016-Sep-24 02:31N 09°28' W 079°56'0 0.0
2016-Sep-24 01:31N 09°28' W 079°56'0 0.0
2016-Sep-24 00:29N 09°28' W 079°56'  

Dump ship's entire track history